createdAt,value
2023-04-29T00:01:39.076Z,3.80
2023-04-29T00:04:06.729Z,2.67
2023-04-29T00:06:34.314Z,2.40
2023-04-29T00:09:01.476Z,3.58
2023-04-29T00:11:29.090Z,3.35
2023-04-29T00:13:56.136Z,3.20
2023-04-29T00:16:23.251Z,3.30
2023-04-29T00:18:50.286Z,2.33
2023-04-29T00:21:17.332Z,3.75
2023-04-29T00:23:44.586Z,2.78
2023-04-29T00:26:11.923Z,2.92
2023-04-29T00:28:40.735Z,2.85
2023-04-29T00:31:07.833Z,2.92
2023-04-29T00:33:34.945Z,2.80
2023-04-29T00:36:02.329Z,3.75
2023-04-29T00:38:29.716Z,2.50
2023-04-29T00:40:57.461Z,3.78
2023-04-29T00:43:24.527Z,3.65
2023-04-29T00:45:51.632Z,2.92
2023-04-29T00:48:18.645Z,2.63
2023-04-29T00:50:45.826Z,2.75
2023-04-29T00:53:13.800Z,2.47
2023-04-29T00:55:42.433Z,2.08
2023-04-29T00:58:10.786Z,3.72
2023-04-29T01:00:38.172Z,1.73
2023-04-29T01:03:06.132Z,2.75
2023-04-29T01:05:33.967Z,3.30
2023-04-29T01:08:39.300Z,3.25
2023-04-29T01:11:12.084Z,2.20
2023-04-29T01:13:55.480Z,2.88
2023-04-29T01:16:29.394Z,1.92
2023-04-29T01:19:02.873Z,3.40
2023-04-29T01:21:47.521Z,3.35
2023-04-29T01:24:16.446Z,3.42
2023-04-29T01:26:56.829Z,2.63
2023-04-29T01:30:30.952Z,3.20
2023-04-29T01:33:09.736Z,2.22
2023-04-29T01:36:08.661Z,2.40
2023-04-29T01:38:47.560Z,1.95
2023-04-29T01:41:23.788Z,2.08
2023-04-29T01:43:57.126Z,2.33
2023-04-29T01:46:24.740Z,2.33
2023-04-29T01:48:56.176Z,2.05
2023-04-29T01:51:23.939Z,2.80
2023-04-29T01:53:51.724Z,1.92
2023-04-29T01:56:19.247Z,1.85
2023-04-29T01:59:18.454Z,2.05
2023-04-29T02:02:08.887Z,3.25
2023-04-29T02:04:41.075Z,2.75
2023-04-29T02:07:08.310Z,2.53
2023-04-29T02:09:35.667Z,2.60
2023-04-29T02:12:09.215Z,2.30
2023-04-29T02:14:37.766Z,2.75
2023-04-29T02:17:05.842Z,3.67
2023-04-29T02:19:33.322Z,2.60
2023-04-29T02:22:00.504Z,3.20
2023-04-29T02:24:27.782Z,2.55
2023-04-29T02:26:54.854Z,2.45
2023-04-29T02:29:21.976Z,2.53
2023-04-29T02:31:49.552Z,2.95
2023-04-29T02:34:16.899Z,1.95
2023-04-29T02:36:44.056Z,3.13
2023-04-29T02:39:11.548Z,2.10
2023-04-29T02:41:38.542Z,1.98
2023-04-29T02:44:07.550Z,3.03
2023-04-29T02:46:45.900Z,3.20
2023-04-29T02:49:14.236Z,2.75
2023-04-29T02:51:42.520Z,2.58
2023-04-29T02:54:09.837Z,1.90
2023-04-29T02:56:37.153Z,3.00
2023-04-29T02:59:04.165Z,4.75
2023-04-29T03:01:31.474Z,3.28
2023-04-29T03:03:58.756Z,4.32
2023-04-29T03:06:26.090Z,2.38
2023-04-29T03:08:53.208Z,3.50
2023-04-29T03:11:20.802Z,4.40
2023-04-29T03:13:47.866Z,7.75
2023-04-29T03:16:17.067Z,6.43
2023-04-29T03:18:45.230Z,5.07
2023-04-29T03:21:12.241Z,5.32
2023-04-29T03:23:42.392Z,3.78
2023-04-29T03:26:12.751Z,5.53
2023-04-29T03:28:39.771Z,3.45
2023-04-29T03:31:06.837Z,6.35
2023-04-29T03:33:34.058Z,5.38
2023-04-29T03:36:01.080Z,5.40
2023-04-29T03:38:38.331Z,3.45
2023-04-29T03:41:05.858Z,3.17
2023-04-29T03:43:33.393Z,3.13
2023-04-29T03:46:00.813Z,3.55
2023-04-29T03:48:28.219Z,2.08
2023-04-29T03:50:55.324Z,3.10
2023-04-29T03:53:22.607Z,2.63
2023-04-29T03:55:49.749Z,2.28
2023-04-29T03:58:17.488Z,1.58
2023-04-29T04:00:44.837Z,3.63
2023-04-29T04:03:17.649Z,2.00
2023-04-29T04:05:44.742Z,1.95
2023-04-29T04:08:14.859Z,7.07
2023-04-29T04:10:41.853Z,3.15
2023-04-29T04:13:20.526Z,3.33
2023-04-29T04:15:51.834Z,3.45
2023-04-29T04:18:18.937Z,2.67
2023-04-29T04:20:46.072Z,2.83
2023-04-29T04:23:13.677Z,2.88
2023-04-29T04:25:48.089Z,2.58
2023-04-29T04:28:38.469Z,3.10
2023-04-29T04:31:09.924Z,2.05
2023-04-29T04:33:37.042Z,2.03
2023-04-29T04:36:04.242Z,2.15
2023-04-29T04:38:33.061Z,2.92
2023-04-29T04:41:01.417Z,4.53
2023-04-29T04:43:35.180Z,8.50
2023-04-29T04:46:14.420Z,6.55
2023-04-29T04:48:51.823Z,5.93
2023-04-29T04:51:21.375Z,5.90
2023-04-29T04:53:49.564Z,6.28
2023-04-29T04:56:22.182Z,5.97
2023-04-29T04:58:49.806Z,5.18
2023-04-29T05:01:16.931Z,5.82
2023-04-29T05:03:44.261Z,7.40
2023-04-29T05:06:11.875Z,4.45
2023-04-29T05:08:41.308Z,5.43
2023-04-29T05:11:20.531Z,4.38
2023-04-29T05:14:01.560Z,3.55
2023-04-29T05:16:28.796Z,3.10
2023-04-29T05:18:56.079Z,3.67
2023-04-29T05:21:26.938Z,4.93
2023-04-29T05:23:53.942Z,2.90
2023-04-29T05:26:22.132Z,3.75
2023-04-29T05:28:50.923Z,3.72
2023-04-29T05:31:20.964Z,3.65
2023-04-29T05:33:48.087Z,3.47
2023-04-29T05:36:15.138Z,3.88
2023-04-29T05:38:42.781Z,4.10
2023-04-29T05:41:09.905Z,4.13
2023-04-29T05:44:02.152Z,3.20
2023-04-29T05:46:32.196Z,3.45
2023-04-29T05:48:59.383Z,2.97
2023-04-29T05:51:28.429Z,3.38
2023-04-29T05:53:55.852Z,4.50
2023-04-29T05:56:23.582Z,5.63
2023-04-29T05:58:50.717Z,5.28
2023-04-29T06:01:18.412Z,4.38
2023-04-29T06:03:46.492Z,4.38
2023-04-29T06:06:39.233Z,4.80
2023-04-29T06:09:23.829Z,4.32
2023-04-29T06:11:56.330Z,4.15
2023-04-29T06:14:23.905Z,4.05
2023-04-29T06:16:51.180Z,4.18
2023-04-29T06:19:18.253Z,6.72
2023-04-29T06:21:45.352Z,4.78
2023-04-29T06:24:12.439Z,4.47
2023-04-29T06:26:39.485Z,3.95
2023-04-29T06:29:06.707Z,4.38
2023-04-29T06:31:35.582Z,6.82
2023-04-29T06:34:04.353Z,3.60
2023-04-29T06:36:33.210Z,4.43
2023-04-29T06:39:18.672Z,7.78
2023-04-29T06:42:14.607Z,5.70
2023-04-29T06:45:00.754Z,6.85
2023-04-29T06:47:48.015Z,5.00
2023-04-29T06:50:24.814Z,5.53
2023-04-29T06:52:51.963Z,5.53
2023-04-29T06:55:19.287Z,6.07
2023-04-29T06:57:46.488Z,5.35
2023-04-29T07:00:16.101Z,4.93
2023-04-29T07:02:43.378Z,4.40
2023-04-29T07:05:10.738Z,4.95
2023-04-29T07:07:37.799Z,3.75
2023-04-29T07:10:05.260Z,5.18
2023-04-29T07:12:32.411Z,5.40
2023-04-29T07:14:59.999Z,4.03
2023-04-29T07:17:30.319Z,3.30
2023-04-29T07:19:57.715Z,3.85
2023-04-29T07:22:24.867Z,4.00
2023-04-29T07:24:55.663Z,5.00
2023-04-29T07:27:23.944Z,6.00
2023-04-29T07:29:52.573Z,5.90
2023-04-29T07:32:19.722Z,5.50
2023-04-29T07:34:48.880Z,5.88
2023-04-29T07:37:15.864Z,4.85
2023-04-29T07:39:42.886Z,4.22
2023-04-29T07:42:10.917Z,5.70
2023-04-29T07:44:38.689Z,4.05
2023-04-29T07:47:06.304Z,4.68
2023-04-29T07:49:33.472Z,4.28
2023-04-29T07:52:00.659Z,4.80
2023-04-29T07:54:27.931Z,4.60
2023-04-29T07:56:55.362Z,6.13
2023-04-29T07:59:22.703Z,4.50
2023-04-29T08:01:49.830Z,4.53
2023-04-29T08:04:17.023Z,5.35
2023-04-29T08:06:50.962Z,4.78
2023-04-29T08:09:18.229Z,5.72
2023-04-29T08:11:45.963Z,4.00
2023-04-29T08:14:13.734Z,4.10
2023-04-29T08:16:40.980Z,4.15
2023-04-29T08:19:08.137Z,4.53
2023-04-29T08:21:35.385Z,3.88
2023-04-29T08:24:02.814Z,7.20
2023-04-29T08:26:30.589Z,4.28
2023-04-29T08:28:57.583Z,4.28
2023-04-29T08:31:24.714Z,4.40
2023-04-29T08:33:52.331Z,5.30
2023-04-29T08:36:19.386Z,3.70
2023-04-29T08:38:47.146Z,4.05
2023-04-29T08:41:16.269Z,4.47
2023-04-29T08:43:44.637Z,3.85
2023-04-29T08:46:12.248Z,4.68
2023-04-29T08:48:43.459Z,5.05
2023-04-29T08:51:13.664Z,4.93
2023-04-29T08:53:40.782Z,4.50
2023-04-29T08:56:22.217Z,4.40
2023-04-29T08:58:54.716Z,3.80
2023-04-29T09:01:23.328Z,5.32
2023-04-29T09:04:12.588Z,3.88
2023-04-29T09:06:39.642Z,4.85
2023-04-29T09:09:07.126Z,5.45
2023-04-29T09:11:35.857Z,3.38
2023-04-29T09:14:04.430Z,5.55
2023-04-29T09:16:31.662Z,7.35
2023-04-29T09:18:58.709Z,7.43
2023-04-29T09:21:27.773Z,7.20
2023-04-29T09:23:57.136Z,5.32
2023-04-29T09:26:25.172Z,7.72
2023-04-29T09:29:14.201Z,6.55
2023-04-29T09:31:42.371Z,5.80
2023-04-29T09:34:12.024Z,4.63
2023-04-29T09:36:51.088Z,7.72
2023-04-29T09:39:22.638Z,5.60
2023-04-29T09:41:52.480Z,6.60
2023-04-29T09:44:25.069Z,6.68
2023-04-29T09:47:03.193Z,5.53
2023-04-29T09:49:32.912Z,6.72
2023-04-29T09:52:01.289Z,5.32
2023-04-29T09:54:32.714Z,5.43
2023-04-29T09:57:02.433Z,4.65
2023-04-29T09:59:30.016Z,5.22
2023-04-29T10:01:58.660Z,5.43
2023-04-29T10:04:28.154Z,4.07
2023-04-29T10:06:56.575Z,6.30
2023-04-29T10:09:24.346Z,5.22
2023-04-29T10:11:52.813Z,5.38
2023-04-29T10:14:22.539Z,3.10
2023-04-29T10:17:25.227Z,4.38
2023-04-29T10:20:05.953Z,3.20
2023-04-29T10:22:45.614Z,6.38
2023-04-29T10:25:14.801Z,6.10
2023-04-29T10:27:46.000Z,7.97
2023-04-29T10:30:14.791Z,4.13
2023-04-29T10:32:50.653Z,5.18
2023-04-29T10:35:20.398Z,4.63
2023-04-29T10:37:49.064Z,4.07
2023-04-29T10:40:24.976Z,3.42
2023-04-29T10:42:53.546Z,3.85
2023-04-29T10:45:28.808Z,3.28
2023-04-29T10:48:02.926Z,4.03
2023-04-29T10:50:31.603Z,3.80
2023-04-29T10:53:01.784Z,3.42
2023-04-29T10:55:29.472Z,3.05
2023-04-29T10:57:57.380Z,3.63
2023-04-29T11:00:28.715Z,2.90
2023-04-29T11:02:57.191Z,4.45
2023-04-29T11:05:35.242Z,6.18
2023-04-29T11:08:16.490Z,7.20
2023-04-29T11:10:44.274Z,11.32
2023-04-29T11:13:29.823Z,5.32
2023-04-29T11:16:07.048Z,5.45
2023-04-29T11:18:35.592Z,4.68
2023-04-29T11:21:08.836Z,5.18
2023-04-29T11:23:42.362Z,5.55
2023-04-29T11:26:09.813Z,6.18
2023-04-29T11:28:37.128Z,5.07
2023-04-29T11:31:04.426Z,4.85
2023-04-29T11:33:34.192Z,7.18
2023-04-29T11:36:01.311Z,3.92
2023-04-29T11:38:30.395Z,9.45
2023-04-29T11:41:00.144Z,10.30
2023-04-29T11:43:27.128Z,8.13
2023-04-29T11:45:54.340Z,5.43
2023-04-29T11:48:23.129Z,3.55
2023-04-29T11:50:52.388Z,6.40
2023-04-29T11:53:25.355Z,5.10
2023-04-29T11:55:56.114Z,4.05
2023-04-29T11:58:24.157Z,5.22
2023-04-29T12:00:54.370Z,6.22
2023-04-29T12:03:22.103Z,6.93
2023-04-29T12:05:52.932Z,4.75
2023-04-29T12:08:21.355Z,6.20
2023-04-29T12:10:49.095Z,6.85
2023-04-29T12:13:18.452Z,6.97
2023-04-29T12:15:47.985Z,5.50
2023-04-29T12:18:15.488Z,5.97
2023-04-29T12:20:42.744Z,3.78
2023-04-29T12:23:12.857Z,5.55
2023-04-29T12:25:43.798Z,4.80
2023-04-29T12:28:14.175Z,3.65
2023-04-29T12:30:41.762Z,3.55
2023-04-29T12:33:09.937Z,3.90
2023-04-29T12:35:40.192Z,3.58
2023-04-29T12:38:08.794Z,4.40
2023-04-29T12:40:35.896Z,6.38
2023-04-29T12:43:11.087Z,4.13
2023-04-29T12:45:39.282Z,4.53
2023-04-29T12:48:10.057Z,5.28
2023-04-29T12:50:50.155Z,4.18
2023-04-29T12:53:17.258Z,4.40
2023-04-29T12:55:44.329Z,3.20
2023-04-29T12:58:11.572Z,2.72
2023-04-29T13:00:38.848Z,3.72
2023-04-29T13:03:06.522Z,4.20
2023-04-29T13:05:34.025Z,2.90
2023-04-29T13:08:01.633Z,3.80
2023-04-29T13:10:28.806Z,4.03
2023-04-29T13:12:56.085Z,3.97
2023-04-29T13:15:23.277Z,5.05
2023-04-29T13:17:50.312Z,5.65
2023-04-29T13:20:17.599Z,5.20
2023-04-29T13:22:45.459Z,6.45
2023-04-29T13:25:12.709Z,4.18
2023-04-29T13:27:39.888Z,3.47
2023-04-29T13:30:07.707Z,4.45
2023-04-29T13:32:43.887Z,3.85
2023-04-29T13:35:12.335Z,6.28
2023-04-29T13:37:39.424Z,4.35
2023-04-29T13:40:08.100Z,3.95
2023-04-29T13:42:44.075Z,7.55
2023-04-29T13:45:16.875Z,6.22
2023-04-29T13:48:03.092Z,4.25
2023-04-29T13:53:35.866Z,3.72
2023-04-29T13:56:41.172Z,4.68
2023-04-29T14:01:37.734Z,5.75
2023-04-29T14:03:53.490Z,3.75
2023-04-29T14:06:20.679Z,5.32
2023-04-29T14:08:47.693Z,4.13
2023-04-29T14:11:14.860Z,4.55
2023-04-29T14:13:42.084Z,4.90
2023-04-29T14:16:09.617Z,3.85
2023-04-29T14:18:36.779Z,5.28
2023-04-29T14:21:03.963Z,4.78
2023-04-29T14:23:31.060Z,6.60
2023-04-29T14:26:16.559Z,5.45
2023-04-29T14:28:45.125Z,9.27
2023-04-29T14:31:13.927Z,5.22
2023-04-29T14:33:41.179Z,6.05
2023-04-29T14:36:09.368Z,3.40
2023-04-29T14:38:36.479Z,6.07
2023-04-29T14:41:03.702Z,6.13
2023-04-29T14:43:30.818Z,7.65
2023-04-29T14:45:57.947Z,4.47
2023-04-29T14:48:25.256Z,6.10
2023-04-29T14:50:52.330Z,4.68
2023-04-29T14:53:19.462Z,4.18
2023-04-29T14:55:46.699Z,4.40
2023-04-29T14:58:13.718Z,3.15
2023-04-29T15:00:40.841Z,4.35
2023-04-29T15:03:10.287Z,3.67
2023-04-29T15:05:37.809Z,3.40
2023-04-29T15:08:05.120Z,2.90
2023-04-29T15:10:32.683Z,3.22
2023-04-29T15:12:59.737Z,2.55
2023-04-29T15:15:26.852Z,2.72
2023-04-29T15:17:53.913Z,2.50
2023-04-29T15:20:21.095Z,3.60
2023-04-29T15:22:48.185Z,3.63
2023-04-29T15:25:15.786Z,8.90
2023-04-29T15:27:43.007Z,5.82
2023-04-29T15:30:10.606Z,6.22
2023-04-29T15:32:37.684Z,6.35
2023-04-29T15:35:06.751Z,5.85
2023-04-29T15:37:34.642Z,4.85
2023-04-29T15:40:02.232Z,5.35
2023-04-29T15:42:30.784Z,9.05
2023-04-29T15:44:57.847Z,7.13
2023-04-29T15:47:24.922Z,7.82
2023-04-29T15:49:52.525Z,5.90
2023-04-29T15:52:19.898Z,5.35
2023-04-29T15:54:47.027Z,6.70
2023-04-29T15:57:14.405Z,6.57
2023-04-29T15:59:41.455Z,6.00
2023-04-29T16:02:11.068Z,7.32
2023-04-29T16:04:38.671Z,6.43
2023-04-29T16:07:05.856Z,5.85
2023-04-29T16:09:34.048Z,7.45
2023-04-29T16:12:02.219Z,6.10
2023-04-29T16:14:30.177Z,6.22
2023-04-29T16:16:57.364Z,5.53
2023-04-29T16:19:24.506Z,8.35
2023-04-29T16:21:51.617Z,7.20
2023-04-29T16:24:18.693Z,5.78
2023-04-29T16:26:45.821Z,6.63
2023-04-29T16:29:13.519Z,7.10
2023-04-29T16:31:40.669Z,5.35
2023-04-29T16:34:07.805Z,5.63
2023-04-29T16:36:34.837Z,5.72
2023-04-29T16:39:04.230Z,3.97
2023-04-29T16:41:32.472Z,5.93
2023-04-29T16:43:59.507Z,5.95
2023-04-29T16:46:26.725Z,5.72
2023-04-29T16:48:56.884Z,6.13
2023-04-29T16:51:29.278Z,7.60
2023-04-29T16:53:56.833Z,5.07
2023-04-29T16:56:23.924Z,10.25
2023-04-29T16:58:51.264Z,5.28
2023-04-29T17:01:21.419Z,5.85
2023-04-29T17:03:49.653Z,7.15
2023-04-29T17:06:16.881Z,8.43
2023-04-29T17:08:44.722Z,14.57
2023-04-29T17:11:12.059Z,8.00
2023-04-29T17:13:39.109Z,10.15
2023-04-29T17:16:07.220Z,8.10
2023-04-29T17:18:34.441Z,8.65
2023-04-29T17:21:02.871Z,10.70
2023-04-29T17:23:30.877Z,10.23
2023-04-29T17:26:04.887Z,13.98
2023-04-29T17:28:36.455Z,10.85
2023-04-29T17:31:03.792Z,12.57
2023-04-29T17:33:39.656Z,8.88
2023-04-29T17:36:06.806Z,16.13
2023-04-29T17:38:33.829Z,13.73
2023-04-29T17:41:02.161Z,14.48
2023-04-29T17:43:32.519Z,13.55
2023-04-29T17:45:59.823Z,13.73
2023-04-29T17:48:27.578Z,15.13
2023-04-29T17:50:54.782Z,13.05
2023-04-29T17:53:21.855Z,16.50
2023-04-29T17:55:48.905Z,15.68
2023-04-29T17:58:15.905Z,22.15
2023-04-29T18:00:43.057Z,25.52
2023-04-29T18:03:10.167Z,21.15
2023-04-29T18:05:37.174Z,27.15
2023-04-29T18:08:04.426Z,25.98
2023-04-29T18:10:31.541Z,24.15
2023-04-29T18:12:58.602Z,25.05
2023-04-29T18:15:25.665Z,23.67
2023-04-29T18:17:54.579Z,24.77
2023-04-29T18:20:22.602Z,21.85
2023-04-29T18:22:50.732Z,22.65
2023-04-29T18:25:18.029Z,25.75
2023-04-29T18:27:45.058Z,26.75
2023-04-29T18:30:12.441Z,29.23
2023-04-29T18:32:39.705Z,27.35
2023-04-29T18:35:07.227Z,26.48
2023-04-29T18:37:34.731Z,26.83
2023-04-29T18:40:01.888Z,29.63
2023-04-29T18:42:30.850Z,31.98
2023-04-29T18:44:57.899Z,36.03
2023-04-29T18:47:24.950Z,41.75
2023-04-29T18:49:52.035Z,37.65
2023-04-29T18:52:19.182Z,38.17
2023-04-29T18:54:46.343Z,35.30
2023-04-29T18:57:13.362Z,42.00
2023-04-29T18:59:41.568Z,36.55
2023-04-29T19:02:08.962Z,34.38
2023-04-29T19:04:36.179Z,39.22
2023-04-29T19:07:06.186Z,32.90
2023-04-29T19:09:33.597Z,32.40
2023-04-29T19:12:03.637Z,33.17
2023-04-29T19:14:34.255Z,23.92
2023-04-29T19:17:01.821Z,24.48
2023-04-29T19:19:30.281Z,28.38
2023-04-29T19:21:57.749Z,25.45
2023-04-29T19:24:24.841Z,21.00
2023-04-29T19:26:51.933Z,18.50
2023-04-29T19:29:19.025Z,23.52
2023-04-29T19:31:46.244Z,22.60
2023-04-29T19:34:13.341Z,20.90
2023-04-29T19:36:40.374Z,19.13
2023-04-29T19:39:10.819Z,19.30
2023-04-29T19:41:38.056Z,14.90
2023-04-29T19:44:05.236Z,24.58
2023-04-29T19:46:32.586Z,19.77
2023-04-29T19:48:59.769Z,20.65
2023-04-29T19:51:26.946Z,26.20
2023-04-29T19:53:56.756Z,27.77
2023-04-29T19:56:23.991Z,21.98
2023-04-29T19:58:51.187Z,20.88
2023-04-29T20:01:23.905Z,31.08
2023-04-29T20:03:51.026Z,20.55
2023-04-29T20:06:18.376Z,22.05
2023-04-29T20:08:45.701Z,23.70
2023-04-29T20:11:13.474Z,25.42
2023-04-29T20:13:40.822Z,22.75
2023-04-29T20:16:08.075Z,23.88
2023-04-29T20:18:36.399Z,17.92
2023-04-29T20:21:03.578Z,22.20
2023-04-29T20:23:30.789Z,21.58
2023-04-29T20:25:58.493Z,20.48
2023-04-29T20:28:25.629Z,20.98
2023-04-29T20:30:52.681Z,18.67
2023-04-29T20:33:21.118Z,17.20
2023-04-29T20:35:48.212Z,18.77
2023-04-29T20:38:15.233Z,19.05
2023-04-29T20:40:42.322Z,17.85
2023-04-29T20:43:09.988Z,19.83
2023-04-29T20:45:37.937Z,18.98
2023-04-29T20:48:05.726Z,16.88
2023-04-29T20:50:32.795Z,20.60
2023-04-29T20:52:59.916Z,14.48
2023-04-29T20:55:27.082Z,17.38
2023-04-29T20:57:54.116Z,15.98
2023-04-29T21:00:21.261Z,20.73
2023-04-29T21:02:48.693Z,16.15
2023-04-29T21:05:15.981Z,18.15
2023-04-29T21:07:43.022Z,21.42
2023-04-29T21:10:10.219Z,16.85
2023-04-29T21:12:37.296Z,17.73
2023-04-29T21:15:06.120Z,17.85
2023-04-29T21:17:33.327Z,15.45
2023-04-29T21:20:01.005Z,14.15
2023-04-29T21:22:28.138Z,18.83
2023-04-29T21:24:55.133Z,15.50
2023-04-29T21:27:22.248Z,15.52
2023-04-29T21:29:49.214Z,16.27
2023-04-29T21:32:21.598Z,17.25
2023-04-29T21:34:49.174Z,18.30
2023-04-29T21:37:16.648Z,18.00
2023-04-29T21:39:43.649Z,16.00
2023-04-29T21:42:11.272Z,15.93
2023-04-29T21:44:38.796Z,16.48
2023-04-29T21:47:06.957Z,19.27
2023-04-29T21:49:34.404Z,16.35
2023-04-29T21:52:01.857Z,13.32
2023-04-29T21:54:28.891Z,16.45
2023-04-29T21:56:56.265Z,14.07
2023-04-29T21:59:23.271Z,17.15
2023-04-29T22:01:59.878Z,14.35
2023-04-29T22:04:28.414Z,14.65
2023-04-29T22:06:59.191Z,17.88
2023-04-29T22:09:26.287Z,12.68
2023-04-29T22:11:53.295Z,17.67
2023-04-29T22:14:20.462Z,12.88
2023-04-29T22:16:47.590Z,16.45
2023-04-29T22:19:14.608Z,12.77
2023-04-29T22:21:43.147Z,13.75
2023-04-29T22:24:10.375Z,16.75
2023-04-29T22:26:37.415Z,14.05
2023-04-29T22:29:04.695Z,10.93
2023-04-29T22:31:31.784Z,13.45
2023-04-29T22:33:58.813Z,15.45
2023-04-29T22:36:26.322Z,13.27
2023-04-29T22:38:53.403Z,15.52
2023-04-29T22:41:20.460Z,14.57
2023-04-29T22:43:47.554Z,16.10
2023-04-29T22:46:14.691Z,14.57
2023-04-29T22:48:41.671Z,16.00
2023-04-29T22:51:08.813Z,16.13
2023-04-29T22:53:35.790Z,11.02
2023-04-29T22:56:03.298Z,16.65
2023-04-29T22:58:30.646Z,12.77
2023-04-29T23:00:58.089Z,14.55
2023-04-29T23:03:26.054Z,12.88
2023-04-29T23:06:02.694Z,14.98
2023-04-29T23:08:29.876Z,11.57
2023-04-29T23:10:56.860Z,13.45
2023-04-29T23:13:23.951Z,15.32
2023-04-29T23:15:51.055Z,14.15
2023-04-29T23:18:18.091Z,14.30
2023-04-29T23:20:48.248Z,14.30
2023-04-29T23:23:15.339Z,13.30
2023-04-29T23:25:42.830Z,15.23
2023-04-29T23:28:09.865Z,15.70
2023-04-29T23:30:36.865Z,14.73
2023-04-29T23:33:04.079Z,14.07
2023-04-29T23:35:31.824Z,13.07
2023-04-29T23:37:58.834Z,17.38
2023-04-29T23:40:26.150Z,19.17
2023-04-29T23:42:53.187Z,16.58
2023-04-29T23:45:20.499Z,18.35
2023-04-29T23:47:47.499Z,16.13
2023-04-29T23:50:14.736Z,19.65
2023-04-29T23:52:41.836Z,15.75
2023-04-29T23:55:09.616Z,19.35
2023-04-29T23:57:36.670Z,16.45
